Terminal Aerodrome Forecast
Issued by NWS

Home | Current Version | Previous Version | Text Only | Print | Product List | Glossary On
Versions: 1 2 3 4 5 6 7 8 9 10 11 12 13 14 15 16 17 18 19 20 21 22 23 24 25 26 27 28 29 30 31 32 33 34
326
FTPQ31 PGUM 181445 AAA
TAFGUM
TAF AMD

TAF AMD
PGSN 181445Z 1815/1912 05015G25KT P6SM VCSH SCT015 BKN040 OVC050
      TEMPO 1815/1819 5SM SHRA SCT015 OVC025=

USA.gov is the U.S. government's official web portal to all federal, state and local government web resources and services.